Airfield :
LOGIN :

Register | Disclaimer

   EN    FR    IT 

 










Legend :    VFR   Marginal VFR   IFR   Intensive IFR   Very Intensive IFR
Visi :
Ceiling :
>= 8 km
>= 3000ft
5 to 8 km
1000 to 3000 ft
1500m to 5 km
500 to 1000 ft
800 to 1500m
200 to 500 ft
< 800m
< 200 ft
Symbols :   Thunderstorms  Fog  Heavy snow  Heavy precipitations  Wind > 20 kt
SIGMETs :     Misc.  Thunderstorms  Icing  Turbulence  Mountain Waves  Volcanic Ashes






- Airport Elevation : 56 ft
- IATA code : BZR


LFMU - Beziers / Vias

CURRENT METAR :
  • 300030Z AUTO VRB02KT CAVOK 20/12 Q1013

EXPIRED METARs :
  • 300000Z AUTO VRB02KT CAVOK 20/13 Q1013
  • 292330Z AUTO VRB01KT CAVOK 20/12 Q1014
  • 292300Z AUTO VRB02KT CAVOK 21/12 Q1014
  • 292230Z AUTO VRB02KT CAVOK 21/12 Q1014
  • 292200Z AUTO 34005KT 310V020 CAVOK 21/12 Q1014
  • 292130Z AUTO 05005KT CAVOK 21/13 Q1014
  • 292100Z AUTO 31006KT CAVOK 22/12 Q1015
  • 292030Z AUTO 32005KT CAVOK 21/12 Q1015 NOSIG
  • 292000Z AUTO 30006KT CAVOK 22/11 Q1015 NOSIG

TAF TAF LFMU
Valid from the 29 at 15:00 until the 30 at 15:00 UTC


291400Z 2915/3015 31006KT CAVOK
BECMG 3005/3007 29015G25KT FEW045TCU
TEMPO 3010/3015 31020G35KT
ATIS : +33 4 67 90 88 88



MET'MAP, your aeronautical weather chart ! - Copyright ORBIFLY December 2007 - Disclaimer

ORBIFLY MET'MAP TEAM :

Programming & Development : Alexandra Zaïnal
Original concept : Baudouin d'Aumeries
Technical & hardware support : Manuel Goepfert
Assistance : Marc-Olivier Méhu




SOURCES & CREDITS :

   NOAA